Time;durP1;ratioP1;P1;durP2;ratioP2;P2;SDS_P1;SDS_P2;PMS_P1;PMS_P2;Temp;Humidity;BMP_temperature;BMP_pressure;BME280_temperature;BME280_humidity;BME280_pressure;Samples;Min_cycle;Max_cycle;Signal;HPM_P1;HPM_P2
2023/03/19 00:01:03;;;;;;;;;;;;;;;4.70;64.31;99868.78;5116250;28;19920;-63
2023/03/19 00:03:32;;;;;;;;;;;;;;;4.73;64.39;99871.34;5116150;28;19920;-63
2023/03/19 00:06:01;;;;;;;;;;;;;;;4.71;64.39;99866.28;5116459;28;19984;-63
2023/03/19 00:08:29;;;;;;;;;;;;;;;4.58;64.57;99865.94;5116019;28;20026;-63
2023/03/19 00:10:59;;;;;;;;;;;;;;;4.54;65.20;99869.19;5116122;28;19930;-63
2023/03/19 00:13:28;;;;;;;;;;;;;;;4.49;65.18;99871.59;5116001;28;19923;-63
2023/03/19 00:15:56;;;;;;;;;;;;;;;4.43;65.34;99876.50;5115878;28;20011;-63
2023/03/19 00:18:25;;;;;;;;;;;;;;;4.47;65.60;99882.47;5115347;28;19919;-63
2023/03/19 00:20:53;;;;;;;;;;;;;;;4.49;65.88;99875.78;5115708;28;19920;-63
2023/03/19 00:23:22;;;;;;;;;;;;;;;4.40;65.83;99878.06;5115744;28;19923;-63
2023/03/19 00:25:50;;;;;;;;;;;;;;;4.48;65.94;99879.13;5116111;28;19927;-63
2023/03/19 00:28:20;;;;;;;;;;;;;;;4.51;65.39;99884.28;5115935;28;19926;-63
2023/03/19 00:30:49;;;;;;;;;;;;;;;4.46;65.78;99880.78;5114840;28;20297;-63
2023/03/19 00:33:18;;;;;;;;;;;;;;;4.46;66.10;99885.81;5115448;28;20365;-63
2023/03/19 00:35:48;;;;;;;;;;;;;;;4.50;65.93;99880.03;5115588;28;19923;-63
2023/03/19 00:38:17;;;;;;;;;;;;;;;4.47;66.19;99874.88;5115497;28;19919;-63
2023/03/19 00:40:47;;;;;;;;;;;;;;;4.51;65.66;99864.91;5115458;28;19945;-63
2023/03/19 00:43:16;;;;;;;;;;;;;;;4.44;66.31;99857.16;5115528;28;19920;-63
2023/03/19 00:45:46;;;;;;;;;;;;;;;4.43;66.07;99857.94;5115657;28;20337;-63
2023/03/19 00:48:15;;;;;;;;;;;;;;;4.40;66.29;99856.19;5114139;28;19923;-63
2023/03/19 00:50:43;;;;;;;;;;;;;;;4.45;65.93;99854.66;5115237;28;19924;-63
2023/03/19 00:53:11;;;;;;;;;;;;;;;4.47;66.39;99862.25;5115229;28;19963;-63
2023/03/19 00:55:40;;;;;;;;;;;;;;;4.43;66.32;99860.47;5115088;28;20004;-63
2023/03/19 00:58:09;;;;;;;;;;;;;;;4.39;66.14;99853.63;5115115;28;19924;-63
2023/03/19 01:00:37;;;;;;;;;;;;;;;4.35;66.82;99841.72;5113985;28;19972;-63
2023/03/19 01:03:07;;;;;;;;;;;;;;;4.28;66.38;99855.88;5115065;28;19919;-63
2023/03/19 01:05:36;;;;;;;;;;;;;;;4.23;66.72;99852.34;5115495;27;19988;-63
2023/03/19 01:08:03;;;;;;;;;;;;;;;4.19;66.94;99845.53;5114982;28;19946;-63
2023/03/19 01:10:33;;;;;;;;;;;;;;;4.05;66.47;99850.16;5114818;28;19955;-63
2023/03/19 01:13:03;;;;;;;;;;;;;;;4.04;67.35;99845.97;5114921;28;19919;-63
2023/03/19 01:15:35;;;;;;;;;;;;;;;4.01;67.73;99839.94;5113911;28;19919;-63
2023/03/19 01:18:03;;;;;;;;;;;;;;;4.08;68.01;99847.75;5114866;28;19985;-63
2023/03/19 01:20:33;;;;;;;;;;;;;;;4.16;68.02;99834.47;5113509;28;19926;-63
2023/03/19 01:23:04;;;;;;;;;;;;;;;4.26;67.88;99836.44;5114793;28;19919;-63
2023/03/19 01:25:33;;;;;;;;;;;;;;;4.41;67.51;99841.91;5113607;28;20379;-63
2023/03/19 01:28:03;;;;;;;;;;;;;;;4.45;67.39;99841.16;5114745;28;20010;-63
2023/03/19 01:30:31;;;;;;;;;;;;;;;4.39;67.16;99833.44;5112866;28;20432;-63
2023/03/19 01:33:11;;;;;;;;;;;;;;;4.54;66.65;99838.84;5114947;28;19985;-63
2023/03/19 01:35:52;;;;;;;;;;;;;;;4.62;66.48;99832.31;5114625;28;19920;-63
2023/03/19 01:38:25;;;;;;;;;;;;;;;4.69;66.33;99839.25;5114555;28;19920;-63
2023/03/19 01:40:59;;;;;;;;;;;;;;;4.82;66.68;99836.22;5114515;28;19924;-63
2023/03/19 01:43:31;;;;;;;;;;;;;;;4.93;66.37;99824.69;5113271;28;20006;-63
2023/03/19 01:46:14;;;;;;;;;;;;;;;5.29;66.22;99829.72;5114395;28;19923;-63
2023/03/19 01:48:56;;;;;;;;;;;;;;;5.99;64.28;99824.50;5114362;28;20377;-63
2023/03/19 01:51:28;;;;;;;;;;;;;;;6.09;63.32;99824.72;5114470;28;19920;-63
2023/03/19 01:54:10;;;;;;;;;;;;;;;5.90;63.06;99827.69;5114393;28;19926;-63
2023/03/19 01:56:48;;;;;;;;;;;;;;;5.71;63.05;99834.88;5114661;28;19920;-64
2023/03/19 01:59:27;;;;;;;;;;;;;;;5.52;63.40;99830.25;5114654;28;19923;-63
2023/03/19 02:02:06;;;;;;;;;;;;;;;5.29;63.52;99820.47;5114443;28;19919;-63
2023/03/19 02:04:36;;;;;;;;;;;;;;;5.15;63.91;99816.78;5113438;28;19926;-63
2023/03/19 02:07:07;;;;;;;;;;;;;;;4.98;64.09;99813.00;5113338;28;19969;-63
2023/03/19 02:09:37;;;;;;;;;;;;;;;4.86;64.60;99819.44;5113057;28;19920;-63
2023/03/19 02:12:06;;;;;;;;;;;;;;;4.81;64.50;99813.41;5113038;28;19963;-63
2023/03/19 02:14:34;;;;;;;;;;;;;;;4.66;65.29;99813.88;5113042;28;19920;-63
2023/03/19 02:17:03;;;;;;;;;;;;;;;4.61;65.44;99816.31;5112868;28;20010;-63
2023/03/19 02:19:35;;;;;;;;;;;;;;;4.60;65.98;99823.84;5112695;28;19926;-63
2023/03/19 02:22:04;;;;;;;;;;;;;;;4.71;65.39;99822.44;5114186;28;19920;-62
2023/03/19 02:24:37;;;;;;;;;;;;;;;4.88;64.90;99808.53;5112886;28;19927;-62
2023/03/19 02:27:12;;;;;;;;;;;;;;;5.19;65.06;99808.44;5114433;28;19919;-62
2023/03/19 02:29:45;;;;;;;;;;;;;;;5.26;64.25;99815.34;5113132;28;20441;-62
2023/03/19 02:32:17;;;;;;;;;;;;;;;5.34;64.41;99808.78;5114048;28;19920;-62
2023/03/19 02:34:45;;;;;;;;;;;;;;;6.05;63.36;99814.47;5114018;28;19919;-62
2023/03/19 02:37:17;;;;;;;;;;;;;;;6.49;62.04;99810.25;5113978;28;20361;-62
2023/03/19 02:39:55;;;;;;;;;;;;;;;6.40;61.51;99810.94;5114826;28;19962;-62
2023/03/19 02:42:27;;;;;;;;;;;;;;;6.07;61.68;99815.38;5114378;28;19920;-62
2023/03/19 02:44:56;;;;;;;;;;;;;;;5.66;61.80;99818.75;5117778;28;20369;-62
2023/03/19 02:47:25;;;;;;;;;;;;;;;5.41;62.34;99815.69;5116382;28;19920;-62
2023/03/19 02:49:54;;;;;;;;;;;;;;;5.24;62.76;99806.88;5116380;28;19949;-62
2023/03/19 02:52:23;;;;;;;;;;;;;;;5.10;63.29;99817.47;5117567;28;19965;-62
2023/03/19 02:54:51;;;;;;;;;;;;;;;4.87;63.58;99819.47;5117573;28;19968;-62
2023/03/19 02:57:20;;;;;;;;;;;;;;;4.72;63.91;99827.56;5117746;28;19945;-63
2023/03/19 02:59:50;;;;;;;;;;;;;;;4.59;64.18;99806.97;5117467;28;20414;-62
2023/03/19 03:02:20;;;;;;;;;;;;;;;4.40;65.06;99825.00;5117457;28;20006;-62
2023/03/19 03:04:48;;;;;;;;;;;;;;;4.27;65.67;99823.00;5117343;28;19928;-62
2023/03/19 03:07:18;;;;;;;;;;;;;;;4.29;66.04;99831.47;5117297;28;19923;-62
2023/03/19 03:09:47;;;;;;;;;;;;;;;4.19;65.62;99826.97;5116961;28;19930;-62
2023/03/19 03:12:16;;;;;;;;;;;;;;;4.08;66.19;99811.53;5117487;28;19942;-62
2023/03/19 03:14:44;;;;;;;;;;;;;;;3.89;66.20;99820.28;5117149;28;19932;-62
2023/03/19 03:17:14;;;;;;;;;;;;;;;3.99;67.21;99819.72;5117105;28;19969;-62
2023/03/19 03:19:43;;;;;;;;;;;;;;;3.90;67.21;99822.00;5117003;28;19927;-62
2023/03/19 03:22:11;;;;;;;;;;;;;;;3.91;67.35;99813.59;5115805;28;19919;-62
2023/03/19 03:24:40;;;;;;;;;;;;;;;3.94;67.64;99808.63;5116090;28;19923;-62
2023/03/19 03:27:08;;;;;;;;;;;;;;;3.98;67.76;99820.50;5116908;28;19920;-62
2023/03/19 03:29:37;;;;;;;;;;;;;;;3.99;67.14;99827.28;5115675;28;19976;-62
2023/03/19 03:32:07;;;;;;;;;;;;;;;3.97;66.84;99825.53;5115643;28;20409;-62
2023/03/19 03:34:38;;;;;;;;;;;;;;;3.89;66.91;99820.28;5117073;28;19919;-62
2023/03/19 03:37:08;;;;;;;;;;;;;;;3.80;67.62;99817.50;5116802;28;20006;-63
2023/03/19 03:39:37;;;;;;;;;;;;;;;3.67;68.05;99823.00;5116986;28;19968;-63
2023/03/19 03:42:05;;;;;;;;;;;;;;;3.63;68.20;99820.34;5116886;28;19965;-62
2023/03/19 03:44:36;;;;;;;;;;;;;;;3.64;68.19;99819.53;5116961;28;20399;-63
2023/03/19 03:47:04;;;;;;;;;;;;;;;3.66;68.05;99816.25;5115385;28;19920;-62
2023/03/19 03:49:33;;;;;;;;;;;;;;;3.63;67.76;99817.81;5115323;28;20010;-62
2023/03/19 03:52:03;;;;;;;;;;;;;;;3.58;67.89;99816.81;5115149;28;19919;-62
2023/03/19 03:54:32;;;;;;;;;;;;;;;3.56;67.92;99820.97;5114351;28;19919;-62
2023/03/19 03:57:00;;;;;;;;;;;;;;;3.53;68.10;99818.38;5116714;28;19926;-62
2023/03/19 03:59:32;;;;;;;;;;;;;;;3.53;68.24;99814.19;5115186;28;19920;-62
2023/03/19 04:02:00;;;;;;;;;;;;;;;3.39;68.76;99815.44;5115021;28;19919;-62
2023/03/19 04:04:29;;;;;;;;;;;;;;;3.37;68.40;99806.97;5115298;28;19924;-62
2023/03/19 04:06:58;;;;;;;;;;;;;;;3.37;68.86;99805.31;5116224;28;20335;-62
2023/03/19 04:09:54;;;;;;;;;;;;;;;3.37;68.36;99817.06;5114286;28;19923;-62
2023/03/19 04:12:23;;;;;;;;;;;;;;;3.34;68.63;99817.81;5114719;28;19919;-62
2023/03/19 04:14:51;;;;;;;;;;;;;;;3.31;68.66;99821.94;5114786;28;19926;-62
2023/03/19 04:17:20;;;;;;;;;;;;;;;3.33;68.52;99825.38;5116096;28;19923;-62
2023/03/19 04:19:48;;;;;;;;;;;;;;;3.30;69.09;99821.06;5115985;28;19920;-62
2023/03/19 04:22:17;;;;;;;;;;;;;;;3.27;69.05;99820.13;5114602;28;20442;-62
2023/03/19 04:24:45;;;;;;;;;;;;;;;3.20;69.29;99818.22;5114597;28;19920;-62
2023/03/19 04:27:16;;;;;;;;;;;;;;;3.19;69.38;99829.13;5115763;28;19920;-62
2023/03/19 04:29:45;;;;;;;;;;;;;;;3.25;69.59;99819.22;5115024;28;19923;-63
2023/03/19 04:32:14;;;;;;;;;;;;;;;3.27;69.69;99820.13;5114595;28;19926;-62
2023/03/19 04:34:42;;;;;;;;;;;;;;;3.22;69.86;99831.72;5114376;28;20018;-62
2023/03/19 04:37:12;;;;;;;;;;;;;;;3.26;69.91;99818.41;5115808;28;20014;-62
2023/03/19 04:39:46;;;;;;;;;;;;;;;3.20;69.97;99824.13;5114476;28;19969;-62
2023/03/19 04:42:17;;;;;;;;;;;;;;;3.18;70.25;99829.94;5115454;28;19962;-62
2023/03/19 04:44:59;;;;;;;;;;;;;;;3.23;70.75;99838.50;5114211;28;19920;-62
2023/03/19 04:47:28;;;;;;;;;;;;;;;3.26;69.96;99828.50;5115663;28;20026;-62
2023/03/19 04:50:00;;;;;;;;;;;;;;;3.22;69.87;99839.28;5115383;28;19992;-62
2023/03/19 04:52:32;;;;;;;;;;;;;;;3.27;70.12;99836.09;5114295;28;20006;-62
2023/03/19 04:55:03;;;;;;;;;;;;;;;3.31;69.86;99837.06;5115426;28;19919;-62
2023/03/19 04:57:42;;;;;;;;;;;;;;;3.24;70.30;99840.19;5115198;28;19927;-62
2023/03/19 05:00:13;;;;;;;;;;;;;;;3.35;70.44;99838.88;5114001;28;19930;-62
2023/03/19 05:02:43;;;;;;;;;;;;;;;3.29;69.88;99843.72;5097487;28;19920;-62
2023/03/19 05:05:12;;;;;;;;;;;;;;;3.31;69.98;99842.13;5115281;28;20014;-62
2023/03/19 05:07:41;;;;;;;;;;;;;;;3.31;70.46;99844.63;5113820;28;20002;-62
2023/03/19 05:10:12;;;;;;;;;;;;;;;3.34;69.87;99835.47;5114979;28;19923;-62
2023/03/19 05:12:42;;;;;;;;;;;;;;;3.36;69.70;99843.09;5113613;28;20010;-62
2023/03/19 05:15:11;;;;;;;;;;;;;;;3.36;69.60;99851.50;5114225;28;20362;-63
2023/03/19 05:17:50;;;;;;;;;;;;;;;3.36;70.13;99855.69;5114895;28;19958;-62
2023/03/19 05:20:24;;;;;;;;;;;;;;;3.41;69.43;99853.34;5114794;27;19919;-62
2023/03/19 05:23:00;;;;;;;;;;;;;;;3.47;69.62;99849.31;5115169;28;19919;-62
2023/03/19 05:25:39;;;;;;;;;;;;;;;3.49;69.98;99857.78;5113531;28;19919;-62
2023/03/19 05:28:12;;;;;;;;;;;;;;;3.51;69.78;99856.16;5114709;28;19923;-62
2023/03/19 05:30:42;;;;;;;;;;;;;;;3.58;69.46;99858.06;5114969;28;19920;-62
2023/03/19 05:33:31;;;;;;;;;;;;;;;3.66;70.14;99859.16;5114303;28;19989;-62
2023/03/19 05:36:00;;;;;;;;;;;;;;;3.69;69.75;99864.31;5113448;28;19920;-62
2023/03/19 05:38:41;;;;;;;;;;;;;;;3.75;70.05;99856.88;5115203;28;19919;-62
2023/03/19 05:41:16;;;;;;;;;;;;;;;3.81;69.27;99861.28;5114814;28;20423;-62
2023/03/19 05:43:58;;;;;;;;;;;;;;;3.89;69.71;99849.69;5114551;28;19920;-62
2023/03/19 05:46:38;;;;;;;;;;;;;;;3.98;69.75;99853.34;5114647;28;19921;-62
2023/03/19 05:49:07;;;;;;;;;;;;;;;4.07;69.69;99846.03;5114762;28;19920;-62
2023/03/19 05:51:35;;;;;;;;;;;;;;;4.15;69.13;99847.91;5114604;28;20010;-62
2023/03/19 05:54:07;;;;;;;;;;;;;;;4.28;68.82;99844.91;5114410;28;19919;-63
2023/03/19 05:56:50;;;;;;;;;;;;;;;4.39;69.25;99858.69;5114365;28;19920;-62
2023/03/19 05:59:31;;;;;;;;;;;;;;;4.59;68.89;99855.84;5114665;28;19919;-62
2023/03/19 06:02:20;;;;;;;;;;;;;;;4.77;68.66;99847.88;5113701;28;19927;-62
2023/03/19 06:04:52;;;;;;;;;;;;;;;4.92;68.48;99853.31;5114302;28;20432;-62
2023/03/19 06:07:27;;;;;;;;;;;;;;;5.10;68.19;99846.16;5114566;28;20422;-63
2023/03/19 06:09:56;;;;;;;;;;;;;;;5.23;67.53;99850.69;5114392;28;19959;-63
2023/03/19 06:12:25;;;;;;;;;;;;;;;5.30;67.77;99846.63;5112934;28;20377;-63
2023/03/19 06:15:16;;;;;;;;;;;;;;;5.40;67.59;99844.31;5113581;28;19921;-63
2023/03/19 06:17:44;;;;;;;;;;;;;;;5.52;67.14;99845.44;5116686;28;19919;-63
2023/03/19 06:20:16;;;;;;;;;;;;;;;5.61;67.14;99845.63;5116759;28;19924;-62
2023/03/19 06:22:46;;;;;;;;;;;;;;;5.68;66.94;99852.53;5116949;28;19923;-62
2023/03/19 06:25:14;;;;;;;;;;;;;;;5.72;66.88;99846.69;5118428;28;19920;-62
2023/03/19 06:27:43;;;;;;;;;;;;;;;5.85;67.02;99858.84;5117970;28;19920;-62
2023/03/19 06:30:25;;;;;;;;;;;;;;;6.04;66.86;99855.88;5118032;28;19923;-63
2023/03/19 06:32:56;;;;;;;;;;;;;;;6.16;66.64;99856.09;5117868;28;19923;-63
2023/03/19 06:35:25;;;;;;;;;;;;;;;6.47;66.68;99860.94;5116632;28;20327;-63
2023/03/19 06:37:54;;;;;;;;;;;;;;;6.80;65.96;99864.88;5116554;28;19951;-62
2023/03/19 06:40:23;;;;;;;;;;;;;;;7.00;65.59;99866.06;5117814;28;19920;-62
2023/03/19 06:42:51;;;;;;;;;;;;;;;7.26;65.42;99855.50;5118434;28;20327;-62
2023/03/19 06:45:20;;;;;;;;;;;;;;;7.54;64.29;99856.75;5116564;28;19974;-62
2023/03/19 06:47:50;;;;;;;;;;;;;;;7.71;63.88;99859.53;5117400;28;19920;-62
2023/03/19 06:50:21;;;;;;;;;;;;;;;7.85;63.03;99860.56;5117268;28;19920;-62
2023/03/19 06:52:49;;;;;;;;;;;;;;;7.98;61.82;99858.19;5117546;28;19919;-63
2023/03/19 06:55:19;;;;;;;;;;;;;;;8.12;60.72;99853.28;5117391;28;19919;-62
2023/03/19 06:57:49;;;;;;;;;;;;;;;8.27;59.89;99857.72;5117540;28;19919;-62
2023/03/19 07:00:19;;;;;;;;;;;;;;;8.47;59.87;99849.44;5117518;28;19969;-62
2023/03/19 07:02:48;;;;;;;;;;;;;;;8.68;59.65;99846.28;5118089;28;19968;-62
2023/03/19 07:05:18;;;;;;;;;;;;;;;8.90;58.47;99840.53;5117333;28;19920;-62
2023/03/19 07:07:46;;;;;;;;;;;;;;;9.06;57.87;99839.84;5117198;27;19965;-62
2023/03/19 07:10:15;;;;;;;;;;;;;;;9.19;56.68;99835.69;5117247;28;19951;-62
2023/03/19 07:12:44;;;;;;;;;;;;;;;9.22;55.89;99840.78;5117381;28;19919;-62
2023/03/19 07:15:13;;;;;;;;;;;;;;;9.33;55.47;99840.00;5117358;28;20328;-62
2023/03/19 07:17:42;;;;;;;;;;;;;;;9.57;55.50;99838.47;5117132;28;19920;-62
2023/03/19 07:20:12;;;;;;;;;;;;;;;9.74;55.03;99837.69;5116727;28;19973;-62
2023/03/19 07:22:42;;;;;;;;;;;;;;;9.91;54.68;99840.38;5117045;28;20361;-62
2023/03/19 07:25:10;;;;;;;;;;;;;;;10.05;53.56;99848.91;5117250;28;19988;-62
2023/03/19 07:27:39;;;;;;;;;;;;;;;10.18;52.94;99845.59;5116953;28;19999;-62
2023/03/19 07:30:08;;;;;;;;;;;;;;;10.27;52.27;99845.59;5116035;28;19919;-62
2023/03/19 07:32:37;;;;;;;;;;;;;;;10.43;52.31;99837.16;5116944;28;19923;-63
2023/03/19 07:35:06;;;;;;;;;;;;;;;10.64;51.65;99842.31;5117123;27;19923;-62
2023/03/19 07:37:35;;;;;;;;;;;;;;;10.74;51.06;99838.91;5117064;28;19965;-62
2023/03/19 07:40:06;;;;;;;;;;;;;;;10.84;50.96;99844.88;5117025;28;20032;-62
2023/03/19 07:42:35;;;;;;;;;;;;;;;11.00;50.96;99845.72;5114221;28;19981;-63
2023/03/19 07:45:04;;;;;;;;;;;;;;;11.10;50.17;99844.88;5104980;27;19994;-63
2023/03/19 07:47:32;;;;;;;;;;;;;;;11.23;50.15;99844.00;5106884;28;19920;-63
2023/03/19 07:50:01;;;;;;;;;;;;;;;11.30;49.69;99841.44;5094385;28;19928;-62
2023/03/19 07:52:29;;;;;;;;;;;;;;;11.47;49.79;99843.97;5095886;28;19920;-62
2023/03/19 07:54:58;;;;;;;;;;;;;;;11.64;48.98;99832.00;5096145;28;19920;-62
2023/03/19 07:57:28;;;;;;;;;;;;;;;11.77;48.67;99843.09;5095967;28;19965;-62
2023/03/19 07:59:56;;;;;;;;;;;;;;;11.78;48.31;99845.63;5095850;28;19920;-62
2023/03/19 08:02:25;;;;;;;;;;;;;;;11.82;47.91;99842.25;5096245;28;20026;-62
2023/03/19 08:04:54;;;;;;;;;;;;;;;12.00;47.89;99842.16;5096097;28;20353;-62
2023/03/19 08:07:23;;;;;;;;;;;;;;;12.16;47.82;99842.09;5095807;28;20280;-63
2023/03/19 08:09:51;;;;;;;;;;;;;;;12.30;46.99;99841.19;5095619;28;19978;-62
2023/03/19 08:12:20;;;;;;;;;;;;;;;12.51;47.00;99835.09;5096136;28;19927;-63
2023/03/19 08:14:50;;;;;;;;;;;;;;;12.60;46.42;99829.91;5095859;28;19927;-63
2023/03/19 08:17:19;;;;;;;;;;;;;;;12.64;46.12;99836.72;5095604;28;19920;-63
2023/03/19 08:19:48;;;;;;;;;;;;;;;12.76;45.84;99826.38;5095499;28;19966;-63
2023/03/19 08:22:16;;;;;;;;;;;;;;;12.98;45.41;99822.78;5096035;28;19974;-63
2023/03/19 08:24:45;;;;;;;;;;;;;;;13.04;45.18;99822.75;5095469;28;19963;-63
2023/03/19 08:27:13;;;;;;;;;;;;;;;13.14;44.52;99821.84;5103066;28;19920;-63
2023/03/19 08:29:42;;;;;;;;;;;;;;;13.20;44.43;99829.47;5106734;28;20277;-63
2023/03/19 08:32:13;;;;;;;;;;;;;;;13.25;43.38;99830.28;5103737;28;20396;-64
2023/03/19 08:34:41;;;;;;;;;;;;;;;13.34;43.63;99830.19;5096228;28;20397;-63
2023/03/19 08:37:09;;;;;;;;;;;;;;;13.50;43.95;99823.19;5095195;28;19952;-63
2023/03/19 08:39:38;;;;;;;;;;;;;;;13.71;44.07;99811.84;5095217;28;19959;-63
2023/03/19 08:42:07;;;;;;;;;;;;;;;13.96;43.70;99820.97;5095084;28;19924;-63
2023/03/19 08:44:35;;;;;;;;;;;;;;;14.16;43.50;99821.56;5095017;28;19931;-63
2023/03/19 08:47:04;;;;;;;;;;;;;;;14.21;42.83;99819.78;5095031;28;20319;-63
2023/03/19 08:49:34;;;;;;;;;;;;;;;14.33;43.00;99819.66;5094883;28;20419;-63
2023/03/19 08:52:03;;;;;;;;;;;;;;;14.46;42.87;99823.75;5093957;28;19975;-63
2023/03/19 08:54:31;;;;;;;;;;;;;;;14.50;42.38;99822.84;5094946;28;20011;-63
2023/03/19 08:57:00;;;;;;;;;;;;;;;14.52;42.00;99821.09;5094741;28;19959;-63
2023/03/19 08:59:29;;;;;;;;;;;;;;;14.57;40.54;99819.31;5094781;28;19966;-63
2023/03/19 09:02:01;;;;;;;;;;;;;;;14.49;40.46;99823.69;5095087;28;19986;-63
2023/03/19 09:04:29;;;;;;;;;;;;;;;14.33;40.34;99819.66;5095186;28;19920;-63
2023/03/19 09:06:59;;;;;;;;;;;;;;;14.35;40.19;99823.03;5094603;28;19927;-63
2023/03/19 09:09:28;;;;;;;;;;;;;;;14.35;39.99;99817.09;5095266;28;19942;-63
2023/03/19 09:11:56;;;;;;;;;;;;;;;14.46;39.92;99821.19;5094534;28;19920;-63
2023/03/19 09:14:26;;;;;;;;;;;;;;;14.69;40.05;99806.28;5094318;28;19924;-63
2023/03/19 09:16:54;;;;;;;;;;;;;;;14.74;39.32;99804.50;5094823;28;19970;-63
2023/03/19 09:19:23;;;;;;;;;;;;;;;14.91;39.25;99803.38;5094464;28;20301;-63
2023/03/19 09:21:52;;;;;;;;;;;;;;;15.09;39.29;99800.50;5094747;28;19926;-63
2023/03/19 09:24:22;;;;;;;;;;;;;;;15.11;39.76;99803.91;5094075;28;19923;-63
2023/03/19 09:26:50;;;;;;;;;;;;;;;15.23;39.92;99801.97;5094996;28;19920;-63
2023/03/19 09:29:19;;;;;;;;;;;;;;;15.40;38.98;99801.66;5094339;28;19926;-63
2023/03/19 09:31:50;;;;;;;;;;;;;;;15.21;38.01;99797.72;5094216;28;20373;-63
2023/03/19 09:34:19;;;;;;;;;;;;;;;15.32;38.54;99798.38;5094250;28;19920;-63
2023/03/19 09:36:47;;;;;;;;;;;;;;;15.52;38.66;99798.03;5094463;28;20018;-63
2023/03/19 09:39:17;;;;;;;;;;;;;;;15.41;37.77;99795.63;5094488;28;19946;-63
2023/03/19 09:41:58;;;;;;;;;;;;;;;15.18;37.42;99787.47;5094693;28;19967;-63
2023/03/19 09:44:29;;;;;;;;;;;;;;;15.04;37.03;99794.59;5094176;28;20019;-63
2023/03/19 09:47:00;;;;;;;;;;;;;;;14.99;36.99;99796.38;5094159;28;19924;-63
2023/03/19 09:49:31;;;;;;;;;;;;;;;15.04;36.96;99790.31;5094076;28;19927;-63
2023/03/19 09:52:05;;;;;;;;;;;;;;;15.18;36.84;99787.47;5093635;28;20334;-63
2023/03/19 09:54:43;;;;;;;;;;;;;;;15.33;36.11;99789.78;5093905;28;19985;-63
2023/03/19 09:57:13;;;;;;;;;;;;;;;15.39;35.65;99793.09;5094057;28;19973;-63
2023/03/19 09:59:42;;;;;;;;;;;;;;;15.46;35.61;99798.13;5093947;28;19963;-63
2023/03/19 10:02:24;;;;;;;;;;;;;;;15.58;35.12;99793.63;5094179;28;19999;-64
2023/03/19 10:04:59;;;;;;;;;;;;;;;15.46;34.98;99799.00;5094428;28;20304;-63
2023/03/19 10:07:38;;;;;;;;;;;;;;;15.48;35.17;99799.81;5093833;28;19936;-63
2023/03/19 10:10:20;;;;;;;;;;;;;;;15.57;34.81;99789.38;5093992;28;20370;-63
2023/03/19 10:12:56;;;;;;;;;;;;;;;15.81;35.11;99785.47;5094097;28;19920;-63
2023/03/19 10:15:29;;;;;;;;;;;;;;;15.93;34.44;99780.88;5093848;28;19958;-63
2023/03/19 10:18:00;;;;;;;;;;;;;;;15.96;34.39;99773.09;5094766;28;19920;-63
2023/03/19 10:20:32;;;;;;;;;;;;;;;15.80;35.21;99784.59;5093671;28;19959;-63
2023/03/19 10:23:04;;;;;;;;;;;;;;;15.74;35.99;99776.16;5094160;28;19919;-63
2023/03/19 10:25:33;;;;;;;;;;;;;;;15.82;35.88;99772.56;5093744;28;19959;-63
2023/03/19 10:28:12;;;;;;;;;;;;;;;15.89;36.33;99768.13;5093735;28;19927;-63
2023/03/19 10:30:41;;;;;;;;;;;;;;;15.95;35.64;99753.41;5093690;28;19920;-63
2023/03/19 10:33:17;;;;;;;;;;;;;;;15.85;35.72;99762.19;5108516;28;19926;-63
2023/03/19 10:35:49;;;;;;;;;;;;;;;15.84;35.34;99745.03;5113907;28;19923;-63
2023/03/19 10:38:20;;;;;;;;;;;;;;;15.96;35.11;99747.38;5114053;28;19919;-63
2023/03/19 10:40:55;;;;;;;;;;;;;;;16.21;35.14;99739.09;5114024;28;19920;-63
2023/03/19 10:43:25;;;;;;;;;;;;;;;16.52;35.48;99745.28;5114327;28;20373;-63
2023/03/19 10:45:54;;;;;;;;;;;;;;;16.83;35.47;99737.63;5114237;28;19958;-63
2023/03/19 10:48:25;;;;;;;;;;;;;;;17.04;35.08;99742.25;5113849;28;19973;-63
2023/03/19 10:50:58;;;;;;;;;;;;;;;17.10;34.55;99742.09;5113717;28;19927;-63
2023/03/19 10:53:32;;;;;;;;;;;;;;;17.15;33.97;99733.34;5114103;28;20006;-63
2023/03/19 10:56:02;;;;;;;;;;;;;;;16.97;33.07;99732.97;5114136;28;19970;-63
2023/03/19 10:58:34;;;;;;;;;;;;;;;16.85;33.20;99720.38;5114374;28;20323;-64
2023/03/19 11:01:04;;;;;;;;;;;;;;;16.99;33.39;99716.56;5113822;28;19919;-63
2023/03/19 11:03:35;;;;;;;;;;;;;;;16.79;33.38;99717.97;5115860;28;19919;-63
2023/03/19 11:06:18;;;;;;;;;;;;;;;16.85;33.67;99718.66;5117422;28;19942;-63
2023/03/19 11:08:52;;;;;;;;;;;;;;;16.85;33.97;99713.50;5117353;27;19930;-63
2023/03/19 11:11:33;;;;;;;;;;;;;;;17.03;34.21;99707.03;5117351;28;19919;-63
2023/03/19 11:14:10;;;;;;;;;;;;;;;17.08;34.18;99708.63;5117392;28;20011;-63
2023/03/19 11:16:48;;;;;;;;;;;;;;;17.37;34.07;99703.47;5117593;28;19949;-63
2023/03/19 11:19:20;;;;;;;;;;;;;;;17.55;33.81;99696.16;5117245;28;19924;-63
2023/03/19 11:21:59;;;;;;;;;;;;;;;17.47;33.03;99704.06;5117719;27;19923;-63
2023/03/19 11:24:28;;;;;;;;;;;;;;;17.51;33.16;99694.53;5117456;28;19980;-63
2023/03/19 11:26:57;;;;;;;;;;;;;;;17.41;32.95;99694.78;5116791;28;19998;-64
2023/03/19 11:29:28;;;;;;;;;;;;;;;17.42;32.63;99693.88;5116935;28;19920;-64
2023/03/19 11:32:04;;;;;;;;;;;;;;;17.46;32.58;99693.81;5117234;28;20365;-63
2023/03/19 11:34:52;;;;;;;;;;;;;;;17.50;32.41;99692.81;5116787;28;19967;-63
2023/03/19 11:37:27;;;;;;;;;;;;;;;17.78;33.27;99688.59;5117067;28;20351;-63
2023/03/19 11:40:03;;;;;;;;;;;;;;;18.07;33.25;99685.97;5117032;28;20011;-64
2023/03/19 11:42:49;;;;;;;;;;;;;;;17.99;33.08;99677.63;5116650;28;20014;-63
2023/03/19 11:45:24;;;;;;;;;;;;;;;18.12;33.35;99684.06;5106710;28;19970;-63
2023/03/19 11:47:59;;;;;;;;;;;;;;;18.09;33.39;99676.44;5116812;28;19929;-63
2023/03/19 11:50:30;;;;;;;;;;;;;;;17.78;32.85;99673.09;5116456;28;19923;-63
2023/03/19 11:53:03;;;;;;;;;;;;;;;17.38;32.73;99668.22;5116492;28;19920;-63
2023/03/19 11:55:38;;;;;;;;;;;;;;;17.41;32.88;99662.97;5116208;28;19920;-63
2023/03/19 11:58:25;;;;;;;;;;;;;;;17.16;33.42;99657.66;5116348;28;19920;-63
2023/03/19 12:00:57;;;;;;;;;;;;;;;17.27;33.72;99663.38;5116579;28;19981;-63
2023/03/19 12:03:43;;;;;;;;;;;;;;;17.26;33.99;99666.84;5116356;28;20357;-63
2023/03/19 12:06:17;;;;;;;;;;;;;;;16.94;34.00;99666.84;5106506;28;19919;-63
2023/03/19 12:08:50;;;;;;;;;;;;;;;16.71;33.89;99656.31;5116218;28;19923;-63
2023/03/19 12:11:23;;;;;;;;;;;;;;;16.64;34.77;99654.78;5116476;28;19924;-63
2023/03/19 12:13:59;;;;;;;;;;;;;;;16.53;35.08;99664.53;5115915;28;20432;-63
2023/03/19 12:16:36;;;;;;;;;;;;;;;16.45;35.32;99662.09;5115559;28;20006;-63
2023/03/19 12:19:30;;;;;;;;;;;;;;;16.56;35.76;99657.53;5115793;28;19919;-63
2023/03/19 12:22:05;;;;;;;;;;;;;;;16.58;36.10;99660.09;5116188;28;19959;-63
2023/03/19 12:24:39;;;;;;;;;;;;;;;16.46;35.77;99650.88;5115902;28;20006;-63
2023/03/19 12:27:18;;;;;;;;;;;;;;;16.31;36.84;99647.88;5115856;28;19920;-63
2023/03/19 12:29:50;;;;;;;;;;;;;;;16.25;37.39;99658.31;5115958;28;20018;-63
2023/03/19 12:32:29;;;;;;;;;;;;;;;16.32;36.98;99654.69;5115754;28;19930;-63
2023/03/19 12:34:59;;;;;;;;;;;;;;;16.19;37.11;99658.47;5115906;28;20377;-63
2023/03/19 12:37:30;;;;;;;;;;;;;;;16.14;37.12;99653.41;5115680;28;19955;-63
2023/03/19 12:40:06;;;;;;;;;;;;;;;16.02;36.81;99657.13;5115561;28;19923;-63
2023/03/19 12:42:37;;;;;;;;;;;;;;;16.01;36.96;99658.00;5115536;28;19923;-63
2023/03/19 12:45:14;;;;;;;;;;;;;;;16.04;36.96;99650.22;5115847;27;19955;-63
2023/03/19 12:47:45;;;;;;;;;;;;;;;16.19;36.49;99648.16;5115733;28;19942;-63
2023/03/19 12:50:17;;;;;;;;;;;;;;;16.37;36.33;99647.69;5115459;28;19962;-63
2023/03/19 12:52:48;;;;;;;;;;;;;;;16.53;36.03;99651.63;5115311;28;19923;-63
2023/03/19 12:55:20;;;;;;;;;;;;;;;16.43;35.61;99648.41;5115270;28;19931;-63
2023/03/19 12:57:51;;;;;;;;;;;;;;;16.32;36.00;99642.66;5115639;28;20014;-63
2023/03/19 13:00:22;;;;;;;;;;;;;;;16.21;36.09;99636.09;5115038;28;19923;-63
2023/03/19 13:02:54;;;;;;;;;;;;;;;16.22;36.62;99628.31;5115102;28;19923;-63
2023/03/19 13:05:29;;;;;;;;;;;;;;;16.22;37.12;99638.63;5115048;28;19919;-63
2023/03/19 13:08:02;;;;;;;;;;;;;;;16.22;36.97;99632.63;5115461;28;19919;-63
2023/03/19 13:10:31;;;;;;;;;;;;;;;16.20;36.77;99629.22;5114888;28;19920;-63
2023/03/19 13:13:01;;;;;;;;;;;;;;;16.22;36.21;99627.50;5114833;28;19923;-63
2023/03/19 13:15:33;;;;;;;;;;;;;;;16.23;36.41;99630.00;5114893;28;19924;-63